RCTP Airport Information

Runway Information
Runway 05 Length 12008 ft width 197 ft
Elevation 73 ft Threshold 0 ft Heading 49
Runway 23 Length 12008 ft Width 197 ft
Elevation 62 ft Threshold 0 ft Heading 229
Runway 06 Length 10991 ft width 197 ft
Elevation 106 ft Threshold 0 ft Heading 49
Runway 24 Length 10991 ft Width 197 ft
Elevation 95 ft Threshold 0 ft Heading 229
Airport Frequencies
Type APP Name TAIPEI APP Frequency 119.6 MHZ
Type APP Name TAIPEI APP Frequency 123.5 MHZ
Type ATIS Name ATIS Frequency 127.6 MHZ
Type CLD Name CLNC DEL Frequency 121.8 MHZ
Type GND Name GND Frequency 121.7 MHZ
Type TWR Name TAIPEI TWR Frequency 118.7 MHZ
Airport Navaids
Type VOR-DME Name Chiang Kai Shek Frequency 114300 KHZ
Airport Weather Information & NOTAM

Deprecated: The each() function is deprecated. This message will be suppressed on further calls in /home/jyhjkdzw/public_html/lib/functions.php on line 130
ADDS - METARS form results

(1728 UTC 16 June 2021)
Data provider http://aviationweather.gov/metar/data/
 
METAR text: RCTP 161717Z 24020KT 9999 FEW015 BKN200 29/24 Q1005 WS R23R NOSIG RMK A2969
Conditions at: RCTP (TAIPEI TAOYUAN , TW) observed 1717 UTC 16 June 2021
Temperature: 29.0°C (84°F)
Dewpoint: 24.0°C (75°F) [RH = 74%]
Pressure (altimeter): 29.68 inches Hg (1005.0 mb)
Winds: from the WSW (240 degrees) at 23 MPH (20 knots; 10.3 m/s)
Visibility: 6 or more miles (10+ km)
Ceiling: 20000 feet AGL
Clouds: few clouds at 1500 feet AGL
broken clouds at 20000 feet AGL
Weather: no significant weather observed at this time

METAR text: RCTP 161700Z 24020KT 9999 FEW015 BKN200 30/24 Q1005 NOSIG RMK A2970
Conditions at: RCTP (TAIPEI TAOYUAN , TW) observed 1700 UTC 16 June 2021
Temperature: 30.0°C (86°F)
Dewpoint: 24.0°C (75°F) [RH = 70%]
Pressure (altimeter): 29.68 inches Hg (1005.0 mb)
Winds: from the WSW (240 degrees) at 23 MPH (20 knots; 10.3 m/s)
Visibility: 6 or more miles (10+ km)
Ceiling: 20000 feet AGL
Clouds: few clouds at 1500 feet AGL
broken clouds at 20000 feet AGL
Weather: no significant weather observed at this time

METAR text: RCTP 161630Z 24021G33KT 9999 FEW015 BKN200 30/24 Q1005 NOSIG RMK A2970
Conditions at: RCTP (TAIPEI TAOYUAN , TW) observed 1630 UTC 16 June 2021
Temperature: 30.0°C (86°F)
Dewpoint: 24.0°C (75°F) [RH = 70%]
Pressure (altimeter): 29.68 inches Hg (1005.0 mb)
Winds: from the WSW (240 degrees) at 24 MPH (21 knots; 10.8 m/s)
gusting to 38 MPH (33 knots; 17.0 m/s)
Visibility: 6 or more miles (10+ km)
Ceiling: 20000 feet AGL
Clouds: few clouds at 1500 feet AGL
broken clouds at 20000 feet AGL
Weather: no significant weather observed at this time

Forecast for: RCTP (TAIPEI TAOYUAN , TW)
Text: TAF RCTP 161700Z 1618/1724 24020G30KT 9999 FEW015
Forecast period: 1800 UTC 16 June 2021 to 0000 UTC 18 June 2021
Forecast type: FROM: standard forecast or significant change
Winds: from the WSW (240 degrees) at 23 MPH (20 knots; 10.3 m/s)
gusting to 34 MPH (30 knots; 15.4 m/s)
Visibility: 6 or more miles (10+ km)
Ceiling: at least 12,000 feet AGL
Clouds: few clouds at 1500 feet AGL
Weather: no significant weather forecast for this period
Text: TEMPO 1620/1624 23015KT
Forecast period: 2000 UTC 16 June 2021 to 0000 UTC 17 June 2021
Forecast type: TEMPORARY: The following changes expected for less than half the time period
Winds: from the SW (230 degrees) at 17 MPH (15 knots; 7.7 m/s)
Visibility: missing
Ceiling: unknown
Clouds: missing
Weather: no significant weather forecast for this period
Text: TEMPO 1702/1709 24027KT
Forecast period: 0200 to 0900 UTC 17 June 2021
Forecast type: TEMPORARY: The following changes expected for less than half the time period
Winds: from the WSW (240 degrees) at 31 MPH (27 knots; 13.9 m/s)
Visibility: missing
Ceiling: unknown
Clouds: missing
Weather: no significant weather forecast for this period